createdAt,value
2019-02-06T00:01:06.087Z,96095.18
2019-02-06T00:04:15.577Z,96093.88
2019-02-06T00:07:23.315Z,96099.46
2019-02-06T00:10:31.181Z,96092.43
2019-02-06T00:13:38.731Z,96092.73
2019-02-06T00:16:46.756Z,96097.78
2019-02-06T00:19:54.960Z,96093.98
2019-02-06T00:23:02.722Z,96083.66
2019-02-06T00:26:10.440Z,96088.84
2019-02-06T00:29:17.796Z,96085.25
2019-02-06T00:32:25.571Z,96087.41
2019-02-06T00:35:33.626Z,96078.47
2019-02-06T00:38:41.793Z,96074.23
2019-02-06T00:41:52.266Z,96070.09
2019-02-06T00:45:02.687Z,96075.33
2019-02-06T00:48:12.828Z,96068.48
2019-02-06T00:51:23.189Z,96074.11
2019-02-06T00:54:31.004Z,96075.22
2019-02-06T00:57:41.869Z,96073.31
2019-02-06T01:00:49.499Z,96074.31
2019-02-06T01:04:00.827Z,96081.20
2019-02-06T01:07:11.117Z,96080.09
2019-02-06T01:10:19.427Z,96083.09
2019-02-06T01:13:26.934Z,96087.81
2019-02-06T01:16:34.626Z,96082.92
2019-02-06T01:19:42.369Z,96085.98
2019-02-06T01:22:49.815Z,96080.00
2019-02-06T01:25:57.759Z,96077.04
2019-02-06T01:29:05.275Z,96071.00
2019-02-06T01:32:15.927Z,96074.05
2019-02-06T01:35:26.547Z,96072.80
2019-02-06T01:38:34.384Z,96071.23
2019-02-06T01:41:42.324Z,96073.03
2019-02-06T01:44:49.964Z,96074.79
2019-02-06T01:47:57.416Z,96075.95
2019-02-06T01:51:06.662Z,96076.98
2019-02-06T01:54:14.432Z,96083.69
2019-02-06T01:57:24.288Z,96082.86
2019-02-06T02:00:31.989Z,96075.98
2019-02-06T02:03:39.346Z,96068.47
2019-02-06T02:06:47.146Z,96064.52
2019-02-06T02:09:54.755Z,96062.39
2019-02-06T02:13:02.505Z,96054.32
2019-02-06T02:16:12.907Z,96047.15
2019-02-06T02:19:20.448Z,96047.97
2019-02-06T02:22:28.172Z,96054.55
2019-02-06T02:25:36.074Z,96049.81
2019-02-06T02:28:43.924Z,96057.02
2019-02-06T02:31:53.595Z,96047.91
2019-02-06T02:35:01.140Z,96048.08
2019-02-06T02:38:08.764Z,96040.19
2019-02-06T02:41:16.708Z,96042.37
2019-02-06T02:44:24.405Z,96033.20
2019-02-06T02:47:32.442Z,96036.89
2019-02-06T02:50:40.196Z,96038.20
2019-02-06T02:53:48.399Z,96033.95
2019-02-06T02:56:56.197Z,96032.28
2019-02-06T03:00:11.911Z,96020.14
2019-02-06T03:03:54.853Z,96016.87
2019-02-06T03:07:05.667Z,96019.66
2019-02-06T03:10:14.121Z,96015.96
2019-02-06T03:13:21.673Z,96024.54
2019-02-06T03:16:29.069Z,96012.50
2019-02-06T03:19:36.340Z,96015.30
2019-02-06T03:22:44.101Z,96009.53
2019-02-06T03:25:51.719Z,96013.90
2019-02-06T03:28:59.105Z,96012.83
2019-02-06T03:32:06.918Z,96022.17
2019-02-06T03:35:14.896Z,96014.52
2019-02-06T03:38:22.353Z,96029.92
2019-02-06T03:41:29.701Z,96024.57
2019-02-06T03:44:37.131Z,96019.70
2019-02-06T03:47:45.784Z,96015.83
2019-02-06T03:50:53.395Z,96013.55
2019-02-06T03:54:01.398Z,96019.59
2019-02-06T03:57:08.709Z,96023.09
2019-02-06T04:00:16.286Z,96027.76
2019-02-06T04:03:24.351Z,96023.67
2019-02-06T04:06:32.182Z,96027.84
2019-02-06T04:09:39.593Z,96026.37
2019-02-06T04:12:47.373Z,96034.23
2019-02-06T04:15:55.435Z,96028.07
2019-02-06T04:19:03.135Z,96024.86
2019-02-06T04:22:10.732Z,96023.55
2019-02-06T04:25:18.103Z,96022.66
2019-02-06T04:28:25.646Z,96023.36
2019-02-06T04:31:33.134Z,96029.42
2019-02-06T04:34:40.605Z,96025.34
2019-02-06T04:37:47.895Z,96020.78
2019-02-06T04:40:55.583Z,96028.72
2019-02-06T04:44:03.255Z,96024.33
2019-02-06T04:47:10.548Z,96018.58
2019-02-06T04:50:18.189Z,96019.14
2019-02-06T04:53:26.292Z,96019.16
2019-02-06T04:56:33.712Z,96020.56
2019-02-06T04:59:41.428Z,96021.96
2019-02-06T05:02:50.242Z,96021.97
2019-02-06T05:05:58.083Z,96023.77
2019-02-06T05:09:07.111Z,96027.55
2019-02-06T05:12:14.762Z,96029.84
2019-02-06T05:15:22.444Z,96040.27
2019-02-06T05:18:30.202Z,96040.89
2019-02-06T05:21:37.698Z,96033.12
2019-02-06T05:24:45.540Z,96042.16
2019-02-06T05:28:07.976Z,96031.03
2019-02-06T05:31:16.516Z,96031.92
2019-02-06T05:34:24.475Z,96028.22
2019-02-06T05:37:35.613Z,96026.44
2019-02-06T05:40:43.448Z,96032.41
2019-02-06T05:43:50.662Z,96023.45
2019-02-06T05:46:58.194Z,96031.45
2019-02-06T05:50:06.868Z,96035.11
2019-02-06T05:53:18.212Z,96033.23
2019-02-06T05:56:25.915Z,96038.78
2019-02-06T05:59:33.606Z,96032.22
2019-02-06T06:02:41.254Z,96032.52
2019-02-06T06:05:48.635Z,96032.89
2019-02-06T06:08:59.280Z,96033.89
2019-02-06T06:12:06.756Z,96032.00
2019-02-06T06:15:15.666Z,96027.00
2019-02-06T06:18:23.034Z,96030.89
2019-02-06T06:21:30.762Z,96034.78
2019-02-06T06:24:38.038Z,96035.87
2019-02-06T06:27:45.827Z,96033.48
2019-02-06T06:30:53.584Z,96033.48
2019-02-06T06:34:01.089Z,96033.37
2019-02-06T06:37:08.378Z,96031.17
2019-02-06T06:40:19.324Z,96031.77
2019-02-06T06:43:27.023Z,96036.26
2019-02-06T06:46:34.784Z,96031.65
2019-02-06T06:49:42.078Z,96032.85
2019-02-06T06:52:49.804Z,96031.86
2019-02-06T06:55:57.411Z,96038.61
2019-02-06T06:59:05.046Z,96038.11
2019-02-06T07:02:12.532Z,96032.41
2019-02-06T07:05:20.193Z,96033.88
2019-02-06T07:08:27.603Z,96035.62
2019-02-06T07:11:35.245Z,96035.05
2019-02-06T07:14:42.629Z,96035.02
2019-02-06T07:17:50.149Z,96037.91
2019-02-06T07:20:57.574Z,96038.28
2019-02-06T07:24:05.330Z,96040.51
2019-02-06T07:27:15.345Z,96035.81
2019-02-06T07:30:28.643Z,96037.58
2019-02-06T07:33:36.028Z,96042.89
2019-02-06T07:36:43.421Z,96046.13
2019-02-06T07:39:53.332Z,96040.72
2019-02-06T07:43:01.001Z,96048.49
2019-02-06T07:46:08.317Z,96042.38
2019-02-06T07:49:15.497Z,96046.41
2019-02-06T07:52:22.778Z,96043.33
2019-02-06T07:55:30.748Z,96038.30
2019-02-06T07:58:38.361Z,96030.89
2019-02-06T08:01:45.797Z,96031.33
2019-02-06T08:04:53.368Z,96027.43
2019-02-06T08:08:00.892Z,96035.57
2019-02-06T08:11:08.664Z,96038.80
2019-02-06T08:14:16.365Z,96033.33
2019-02-06T08:17:23.764Z,96036.37
2019-02-06T08:20:31.253Z,96043.33
2019-02-06T08:23:38.520Z,96041.98
2019-02-06T08:26:46.221Z,96039.98
2019-02-06T08:29:53.746Z,96036.72
2019-02-06T08:33:01.627Z,96039.00
2019-02-06T08:36:09.506Z,96026.98
2019-02-06T08:39:17.125Z,96026.10
2019-02-06T08:42:24.430Z,96031.23
2019-02-06T08:45:32.119Z,96037.25
2019-02-06T08:48:39.834Z,96028.05
2019-02-06T08:51:47.226Z,96031.97
2019-02-06T08:54:54.711Z,96035.94
2019-02-06T08:58:03.464Z,96032.55
2019-02-06T09:01:11.103Z,96035.94
2019-02-06T09:04:19.366Z,96038.25
2019-02-06T09:07:27.371Z,96030.45
2019-02-06T09:10:35.039Z,96035.52
2019-02-06T09:13:42.888Z,96038.11
2019-02-06T09:16:50.254Z,96032.13
2019-02-06T09:19:58.156Z,96045.64
2019-02-06T09:23:05.908Z,96041.04
2019-02-06T09:26:13.778Z,96042.72
2019-02-06T09:29:21.470Z,96030.37
2019-02-06T09:32:28.969Z,96031.38
2019-02-06T09:35:36.667Z,96032.80
2019-02-06T09:38:44.317Z,96032.66
2019-02-06T09:41:52.023Z,96032.66
2019-02-06T09:44:59.167Z,96034.16
2019-02-06T09:48:06.997Z,96030.40
2019-02-06T09:51:14.167Z,96030.16
2019-02-06T09:54:21.472Z,96028.78
2019-02-06T09:57:28.956Z,96026.62
2019-02-06T10:00:37.810Z,96026.47
2019-02-06T10:03:47.017Z,96023.98
2019-02-06T10:06:54.908Z,96026.08
2019-02-06T10:10:03.700Z,96028.97
2019-02-06T10:13:11.384Z,96032.72
2019-02-06T10:16:20.203Z,96033.70
2019-02-06T10:19:27.957Z,96027.56
2019-02-06T10:22:35.853Z,96026.08
2019-02-06T10:25:43.892Z,96021.92
2019-02-06T10:28:51.190Z,96014.88
2019-02-06T10:31:59.064Z,96006.20
2019-02-06T10:35:07.013Z,95997.79
2019-02-06T10:38:16.227Z,95999.47
2019-02-06T10:41:23.518Z,96001.30
2019-02-06T10:44:30.984Z,95999.13
2019-02-06T10:47:38.499Z,95995.67
2019-02-06T10:50:51.227Z,95986.88
2019-02-06T10:53:58.487Z,95987.95
2019-02-06T10:57:06.305Z,95984.48
2019-02-06T11:00:36.495Z,95975.08
2019-02-06T11:03:44.232Z,95966.18
2019-02-06T11:06:51.961Z,95970.84
2019-02-06T11:09:59.226Z,95955.14
2019-02-06T11:13:07.338Z,95953.05
2019-02-06T11:16:15.109Z,95950.02
2019-02-06T11:19:22.480Z,95940.86
2019-02-06T11:22:30.232Z,95942.04
2019-02-06T11:25:38.095Z,95932.90
2019-02-06T11:28:45.533Z,95930.59
2019-02-06T11:31:52.941Z,95925.89
2019-02-06T11:35:02.530Z,95920.44
2019-02-06T11:38:09.805Z,95921.91
2019-02-06T11:41:17.279Z,95919.36
2019-02-06T11:44:24.459Z,95913.89
2019-02-06T11:47:31.698Z,95910.28
2019-02-06T11:50:41.440Z,95914.27
2019-02-06T11:53:48.816Z,95904.97
2019-02-06T11:56:56.713Z,95909.06
2019-02-06T12:00:10.058Z,95912.69
2019-02-06T12:03:17.862Z,95900.30
2019-02-06T12:06:25.626Z,95903.09
2019-02-06T12:09:33.008Z,95901.61
2019-02-06T12:12:40.468Z,95891.78
2019-02-06T12:15:48.015Z,95887.66
2019-02-06T12:18:55.274Z,95880.01
2019-02-06T12:22:03.143Z,95869.47
2019-02-06T12:25:11.575Z,95864.53
2019-02-06T12:28:18.996Z,95858.84
2019-02-06T12:31:26.529Z,95856.11
2019-02-06T12:34:33.935Z,95855.23
2019-02-06T12:37:41.224Z,95854.87
2019-02-06T12:40:49.003Z,95841.38
2019-02-06T12:43:56.710Z,95837.93
2019-02-06T12:47:04.282Z,95836.41
2019-02-06T12:50:12.555Z,95829.97
2019-02-06T12:53:19.821Z,95828.21
2019-02-06T12:56:27.409Z,95824.92
2019-02-06T12:59:35.008Z,95816.39
2019-02-06T13:02:42.161Z,95809.54
2019-02-06T13:05:50.347Z,95817.45
2019-02-06T13:08:57.960Z,95811.58
2019-02-06T13:12:05.607Z,95800.05
2019-02-06T13:15:13.834Z,95807.47
2019-02-06T13:18:24.378Z,95806.19
2019-02-06T13:21:31.839Z,95805.28
2019-02-06T13:24:39.363Z,95803.50
2019-02-06T13:27:49.377Z,95799.97
2019-02-06T13:30:58.296Z,95796.84
2019-02-06T13:34:10.273Z,95790.90
2019-02-06T13:37:22.549Z,95794.55
2019-02-06T13:40:44.813Z,95789.62
2019-02-06T13:47:11.050Z,95784.78
2019-02-06T13:50:22.142Z,95789.77
2019-02-06T13:53:29.947Z,95781.10
2019-02-06T13:56:39.031Z,95784.81
2019-02-06T13:59:47.999Z,95774.88
2019-02-06T14:02:57.891Z,95776.22
2019-02-06T14:06:11.353Z,95765.48
2019-02-06T14:09:22.553Z,95762.41
2019-02-06T14:12:29.275Z,95748.41
2019-02-06T14:15:41.807Z,95748.72
2019-02-06T14:18:49.484Z,95745.92
2019-02-06T14:21:59.148Z,95745.92
2019-02-06T14:26:14.065Z,95740.14
2019-02-06T14:30:31.767Z,95733.78
2019-02-06T14:34:55.508Z,95727.16
2019-02-06T14:39:13.073Z,95731.01
2019-02-06T14:43:20.518Z,95729.63
2019-02-06T14:47:46.173Z,95721.79
2019-02-06T14:51:51.630Z,95721.13
2019-02-06T14:55:31.505Z,95719.90
2019-02-06T14:59:36.326Z,95718.83
2019-02-06T15:03:40.414Z,95717.05
2019-02-06T15:08:16.797Z,95717.92
2019-02-06T15:12:15.438Z,95716.81
2019-02-06T15:15:44.747Z,95712.39
2019-02-06T15:19:47.693Z,95699.98
2019-02-06T15:24:25.336Z,95697.61
2019-02-06T15:28:43.591Z,95700.45
2019-02-06T15:32:58.747Z,95698.70
2019-02-06T15:36:45.086Z,95687.69
2019-02-06T15:40:43.769Z,95682.44
2019-02-06T15:44:40.805Z,95681.25
2019-02-06T15:48:35.355Z,95674.83
2019-02-06T15:52:11.409Z,95668.36
2019-02-06T15:56:15.547Z,95664.77
2019-02-06T15:59:57.522Z,95667.19
2019-02-06T16:04:43.366Z,95653.70
2019-02-06T16:08:25.034Z,95647.34
2019-02-06T16:12:10.787Z,95641.70
2019-02-06T16:16:27.311Z,95647.55
2019-02-06T16:20:59.612Z,95642.93
2019-02-06T16:24:55.235Z,95640.70
2019-02-06T16:28:42.651Z,95642.98
2019-02-06T16:32:26.319Z,95635.72
2019-02-06T16:36:35.839Z,95640.15
2019-02-06T16:40:45.608Z,95635.30
2019-02-06T16:44:47.677Z,95635.22
2019-02-06T16:48:27.297Z,95633.64
2019-02-06T16:52:07.602Z,95621.41
2019-02-06T16:55:57.731Z,95624.13
2019-02-06T16:59:38.500Z,95629.33
2019-02-06T17:03:25.475Z,95628.28
2019-02-06T17:07:08.061Z,95618.62
2019-02-06T17:11:21.110Z,95609.20
2019-02-06T17:15:42.248Z,95611.84
2019-02-06T17:20:03.433Z,95613.94
2019-02-06T17:24:09.154Z,95610.45
2019-02-06T17:27:47.366Z,95603.99
2019-02-06T17:31:39.787Z,95602.16
2019-02-06T17:36:18.208Z,95592.59
2019-02-06T17:40:22.973Z,95595.24
2019-02-06T17:44:12.764Z,95596.55
2019-02-06T17:48:21.386Z,95601.05
2019-02-06T17:52:28.353Z,95601.63
2019-02-06T17:55:35.943Z,95606.06
2019-02-06T17:58:44.339Z,95603.48
2019-02-06T18:01:54.148Z,95596.85
2019-02-06T18:05:01.715Z,95595.68
2019-02-06T18:08:09.348Z,95586.20
2019-02-06T18:11:17.053Z,95594.95
2019-02-06T18:14:24.900Z,95579.42
2019-02-06T18:17:32.499Z,95576.81
2019-02-06T18:20:40.001Z,95570.91
2019-02-06T18:23:47.594Z,95570.06
2019-02-06T18:26:56.213Z,95572.32
2019-02-06T18:30:10.557Z,95569.31
2019-02-06T18:33:19.188Z,95573.02
2019-02-06T18:36:27.119Z,95566.34
2019-02-06T18:39:34.807Z,95565.05
2019-02-06T18:42:42.475Z,95554.59
2019-02-06T18:45:50.233Z,95550.77
2019-02-06T18:48:58.227Z,95544.83
2019-02-06T18:52:05.736Z,95543.05
2019-02-06T18:55:13.356Z,95538.11
2019-02-06T18:58:21.496Z,95527.47
2019-02-06T19:01:29.331Z,95520.70
2019-02-06T19:04:36.831Z,95519.00
2019-02-06T19:07:47.780Z,95511.91
2019-02-06T19:10:55.685Z,95518.94
2019-02-06T19:14:04.319Z,95524.86
2019-02-06T19:17:14.770Z,95517.52
2019-02-06T19:20:21.765Z,95517.38
2019-02-06T19:23:29.871Z,95509.53
2019-02-06T19:26:37.831Z,95514.73
2019-02-06T19:29:45.289Z,95505.83
2019-02-06T19:32:53.121Z,95507.24
2019-02-06T19:36:00.909Z,95504.02
2019-02-06T19:39:09.879Z,95505.41
2019-02-06T19:42:17.821Z,95509.50
2019-02-06T19:45:25.644Z,95502.10
2019-02-06T19:48:33.837Z,95502.69
2019-02-06T19:51:41.159Z,95499.39
2019-02-06T19:55:00.321Z,95496.91
2019-02-06T19:58:08.296Z,95485.74
2019-02-06T20:01:16.423Z,95483.72
2019-02-06T20:04:24.179Z,95472.55
2019-02-06T20:07:31.820Z,95479.24
2019-02-06T20:10:42.104Z,95478.25
2019-02-06T20:13:49.501Z,95470.80
2019-02-06T20:16:57.078Z,95464.50
2019-02-06T20:20:07.108Z,95469.00
2019-02-06T20:23:14.769Z,95466.22
2019-02-06T20:26:22.267Z,95460.12
2019-02-06T20:29:30.031Z,95454.62
2019-02-06T20:32:38.098Z,95455.35
2019-02-06T20:35:45.327Z,95454.42
2019-02-06T20:38:52.609Z,95457.12
2019-02-06T20:42:00.817Z,95448.98
2019-02-06T20:45:08.828Z,95451.84
2019-02-06T20:48:16.046Z,95451.81
2019-02-06T20:51:23.960Z,95448.07
2019-02-06T20:54:31.729Z,95449.52
2019-02-06T20:57:41.199Z,95451.44
2019-02-06T21:00:48.605Z,95444.59
2019-02-06T21:03:55.993Z,95446.20
2019-02-06T21:07:03.907Z,95443.20
2019-02-06T21:10:16.059Z,95440.78
2019-02-06T21:13:32.721Z,95439.57
2019-02-06T21:16:34.065Z,95431.52
2019-02-06T21:19:42.209Z,95427.99
2019-02-06T21:22:51.118Z,95425.78
2019-02-06T21:25:59.483Z,95427.34
2019-02-06T21:29:07.197Z,95424.47
2019-02-06T21:32:15.349Z,95411.69
2019-02-06T21:35:23.256Z,95409.98
2019-02-06T21:38:30.980Z,95409.48
2019-02-06T21:41:39.055Z,95404.82
2019-02-06T21:44:47.033Z,95401.92
2019-02-06T21:47:54.906Z,95390.52
2019-02-06T21:51:03.367Z,95389.94
2019-02-06T21:54:10.856Z,95391.86
2019-02-06T21:57:18.656Z,95386.70
2019-02-06T22:00:29.998Z,95380.67
2019-02-06T22:03:38.047Z,95379.68
2019-02-06T22:06:45.581Z,95385.13
2019-02-06T22:09:56.308Z,95384.45
2019-02-06T22:13:03.799Z,95388.53
2019-02-06T22:16:11.320Z,95385.08
2019-02-06T22:19:18.670Z,95388.86
2019-02-06T22:22:26.626Z,95384.38
2019-02-06T22:25:33.894Z,95382.34
2019-02-06T22:28:41.318Z,95378.04
2019-02-06T22:31:48.675Z,95375.54
2019-02-06T22:34:56.697Z,95377.13
2019-02-06T22:38:04.412Z,95368.92
2019-02-06T22:41:12.083Z,95361.25
2019-02-06T22:44:19.819Z,95364.41
2019-02-06T22:47:27.158Z,95355.73
2019-02-06T22:50:34.777Z,95356.08
2019-02-06T22:53:42.225Z,95355.36
2019-02-06T22:56:50.183Z,95350.69
2019-02-06T22:59:57.893Z,95354.30
2019-02-06T23:03:06.080Z,95338.78
2019-02-06T23:06:14.320Z,95334.78
2019-02-06T23:09:22.455Z,95327.64
2019-02-06T23:12:29.708Z,95325.75
2019-02-06T23:15:37.319Z,95323.95
2019-02-06T23:18:45.171Z,95326.55
2019-02-06T23:21:52.640Z,95323.09
2019-02-06T23:25:00.851Z,95318.76
2019-02-06T23:28:09.606Z,95319.20
2019-02-06T23:31:17.018Z,95318.80
2019-02-06T23:34:24.937Z,95313.52
2019-02-06T23:37:32.813Z,95309.80
2019-02-06T23:40:40.349Z,95305.32
2019-02-06T23:43:48.407Z,95301.33
2019-02-06T23:46:56.311Z,95295.60
2019-02-06T23:50:04.842Z,95290.11
2019-02-06T23:53:12.457Z,95296.89
2019-02-06T23:56:20.823Z,95284.67
2019-02-06T23:59:28.463Z,95281.89
